createdAt,value
2023-04-26T00:03:00.096Z,100095.88
2023-04-26T00:08:02.861Z,100106.44
2023-04-26T00:13:04.619Z,100112.59
2023-04-26T00:18:06.480Z,100103.50
2023-04-26T00:23:10.565Z,100111.38
2023-04-26T00:28:12.290Z,100116.50
2023-04-26T00:33:14.096Z,100124.59
2023-04-26T00:38:16.146Z,100120.25
2023-04-26T00:43:17.906Z,100126.38
2023-04-26T00:48:20.786Z,100117.81
2023-04-26T00:53:23.714Z,100114.50
2023-04-26T00:58:26.376Z,100112.22
2023-04-26T01:03:28.525Z,100107.09
2023-04-26T01:08:30.438Z,100107.34
2023-04-26T01:13:32.778Z,100099.84
2023-04-26T01:18:35.341Z,100106.81
2023-04-26T01:23:37.060Z,100104.50
2023-04-26T01:28:40.114Z,100107.34
2023-04-26T01:33:41.965Z,100116.50
2023-04-26T01:38:43.730Z,100126.97
2023-04-26T01:43:45.496Z,100127.75
2023-04-26T01:48:47.415Z,100126.19
2023-04-26T01:53:49.385Z,100122.72
2023-04-26T01:58:51.408Z,100117.88
2023-04-26T02:03:53.514Z,100123.03
2023-04-26T02:08:55.591Z,100120.44
2023-04-26T02:13:57.538Z,100110.44
2023-04-26T02:19:00.225Z,100113.69
2023-04-26T02:24:02.003Z,100117.22
2023-04-26T02:29:06.389Z,100114.69
2023-04-26T02:34:08.651Z,100119.22
2023-04-26T02:39:12.134Z,100120.91
2023-04-26T02:44:14.141Z,100121.81
2023-04-26T02:49:16.624Z,100123.63
2023-04-26T02:54:18.651Z,100127.22
2023-04-26T02:59:20.441Z,100128.94
2023-04-26T03:04:22.939Z,100130.19
2023-04-26T03:09:24.796Z,100121.72
2023-04-26T03:14:27.248Z,100129.72
2023-04-26T03:19:31.202Z,100128.22
2023-04-26T03:24:33.054Z,100123.94
2023-04-26T03:29:35.012Z,100128.38
2023-04-26T03:34:36.807Z,100122.38
2023-04-26T03:39:38.603Z,100123.44
2023-04-26T03:44:41.042Z,100121.91
2023-04-26T03:49:42.962Z,100121.09
2023-04-26T03:54:44.730Z,100121.88
2023-04-26T03:59:47.151Z,100118.41
2023-04-26T04:04:49.273Z,100115.91
2023-04-26T04:09:51.377Z,100120.94
2023-04-26T04:14:54.998Z,100116.53
2023-04-26T04:19:58.349Z,100126.94
2023-04-26T04:25:00.282Z,100129.41
2023-04-26T04:30:03.792Z,100141.16
2023-04-26T04:35:07.417Z,100143.56
2023-04-26T04:40:11.661Z,100146.06
2023-04-26T04:45:15.762Z,100145.41
2023-04-26T04:50:17.955Z,100157.56
2023-04-26T04:55:19.916Z,100160.91
2023-04-26T05:00:22.000Z,100160.84
2023-04-26T05:05:36.144Z,100164.97
2023-04-26T05:10:38.723Z,100171.41
2023-04-26T05:15:41.160Z,100176.22
2023-04-26T05:20:43.140Z,100170.97
2023-04-26T05:25:45.043Z,100177.75
2023-04-26T05:31:05.418Z,100186.75
2023-04-26T05:36:42.676Z,100187.69
2023-04-26T05:41:44.815Z,100190.59
2023-04-26T05:46:46.896Z,100190.41
2023-04-26T05:51:48.774Z,100198.97
2023-04-26T05:56:50.562Z,100203.69
2023-04-26T06:01:52.649Z,100201.59
2023-04-26T06:06:54.440Z,100210.41
2023-04-26T06:11:57.136Z,100215.81
2023-04-26T06:16:59.383Z,100212.56
2023-04-26T06:22:02.560Z,100216.31
2023-04-26T06:27:04.446Z,100211.16
2023-04-26T06:32:06.535Z,100208.44
2023-04-26T06:37:09.123Z,100204.75
2023-04-26T06:42:14.162Z,100200.38
2023-04-26T06:47:36.102Z,100195.97
2023-04-26T06:52:37.940Z,100202.25
2023-04-26T06:57:39.727Z,100205.59
2023-04-26T07:02:42.274Z,100212.47
2023-04-26T07:07:44.240Z,100221.38
2023-04-26T07:12:46.056Z,100211.38
2023-04-26T07:17:47.876Z,100203.13
2023-04-26T07:22:50.958Z,100197.56
2023-04-26T07:27:52.760Z,100197.19
2023-04-26T07:32:54.646Z,100189.63
2023-04-26T07:37:56.743Z,100177.69
2023-04-26T07:42:59.116Z,100176.78
2023-04-26T07:48:01.029Z,100173.75
2023-04-26T07:53:02.997Z,100168.63
2023-04-26T07:58:04.793Z,100172.63
2023-04-26T08:03:07.200Z,100172.97
2023-04-26T08:08:09.178Z,100162.75
2023-04-26T08:13:10.941Z,100167.19
2023-04-26T08:18:13.324Z,100171.06
2023-04-26T08:23:15.178Z,100172.09
2023-04-26T08:28:16.936Z,100167.88
2023-04-26T08:33:19.110Z,100173.19
2023-04-26T08:38:22.806Z,100163.69
2023-04-26T08:43:24.751Z,100160.03
2023-04-26T08:48:28.591Z,100159.72
2023-04-26T08:53:31.584Z,100166.44
2023-04-26T08:58:33.498Z,100176.50
2023-04-26T09:03:35.660Z,100168.78
2023-04-26T09:08:41.731Z,100166.97
2023-04-26T09:13:43.503Z,100165.97
2023-04-26T09:18:52.605Z,100154.44
2023-04-26T09:23:59.600Z,100149.06
2023-04-26T09:29:18.474Z,100135.97
2023-04-26T09:34:23.074Z,100126.81
2023-04-26T09:39:33.368Z,100126.25
2023-04-26T09:44:38.569Z,100134.00
2023-04-26T09:49:46.781Z,100136.88
2023-04-26T09:54:49.475Z,100134.31
2023-04-26T09:59:57.541Z,100134.84
2023-04-26T10:05:02.301Z,100129.81
2023-04-26T10:10:05.465Z,100120.63
2023-04-26T10:15:09.329Z,100122.38
2023-04-26T10:20:14.412Z,100112.75
2023-04-26T10:25:16.339Z,100115.69
2023-04-26T10:30:20.466Z,100104.63
2023-04-26T10:35:32.704Z,100101.28
2023-04-26T10:40:39.380Z,100097.53
2023-04-26T10:45:42.630Z,100095.59
2023-04-26T10:51:02.771Z,100087.03
2023-04-26T10:56:04.880Z,100080.25
2023-04-26T11:01:17.457Z,100072.69
2023-04-26T11:06:19.334Z,100082.84
2023-04-26T11:11:26.462Z,100074.75
2023-04-26T11:16:29.130Z,100071.50
2023-04-26T11:21:32.725Z,100065.56
2023-04-26T11:26:35.249Z,100057.47
2023-04-26T11:31:37.531Z,100061.47
2023-04-26T11:36:39.601Z,100049.91
2023-04-26T11:41:41.406Z,100050.75
2023-04-26T11:46:43.549Z,100050.28
2023-04-26T11:51:48.723Z,100041.22
2023-04-26T11:56:50.845Z,100029.34
2023-04-26T12:01:53.670Z,100032.31
2023-04-26T12:06:57.156Z,100029.78
2023-04-26T12:11:59.505Z,100032.22
2023-04-26T12:17:03.328Z,100029.75
2023-04-26T12:22:07.070Z,100031.44
2023-04-26T12:27:08.919Z,100030.41
2023-04-26T12:32:10.676Z,100021.59
2023-04-26T12:37:12.485Z,100017.72
2023-04-26T12:42:14.218Z,100019.34
2023-04-26T12:47:15.960Z,100014.88
2023-04-26T12:52:17.805Z,100015.50
2023-04-26T12:57:21.474Z,100009.97
2023-04-26T13:02:23.528Z,100005.88
2023-04-26T13:07:25.865Z,100007.94
2023-04-26T13:12:28.572Z,100016.66
2023-04-26T13:17:31.801Z,100015.34
2023-04-26T13:22:34.702Z,100021.28
2023-04-26T13:27:36.967Z,100014.13
2023-04-26T13:32:39.698Z,100010.16
2023-04-26T13:37:42.416Z,100013.44
2023-04-26T13:42:44.187Z,100005.69
2023-04-26T13:47:46.197Z,100007.94
2023-04-26T13:52:50.874Z,100005.81
2023-04-26T13:57:52.604Z,99993.63
2023-04-26T14:02:54.665Z,99981.19
2023-04-26T14:07:57.242Z,99986.81
2023-04-26T14:12:58.962Z,99982.28
2023-04-26T14:18:00.920Z,99964.69
2023-04-26T14:23:02.708Z,99961.09
2023-04-26T14:28:04.469Z,99956.38
2023-04-26T14:33:06.305Z,99959.91
2023-04-26T14:38:08.092Z,99962.78
2023-04-26T14:43:09.836Z,99963.50
2023-04-26T14:48:12.516Z,99963.09
2023-04-26T14:53:14.363Z,99961.19
2023-04-26T14:58:20.165Z,99966.56
2023-04-26T15:03:28.009Z,99963.44
2023-04-26T15:08:30.652Z,99965.56
2023-04-26T15:13:32.555Z,99961.09
2023-04-26T15:18:34.419Z,99961.34
2023-04-26T15:23:41.678Z,99947.66
2023-04-26T15:28:44.425Z,99954.09
2023-04-26T15:33:46.683Z,99962.28
2023-04-26T15:38:49.625Z,99948.50
2023-04-26T15:43:55.788Z,99944.75
2023-04-26T15:48:57.575Z,99945.56
2023-04-26T15:53:59.318Z,99936.75
2023-04-26T15:59:01.108Z,99942.91
2023-04-26T16:04:03.044Z,99937.16
2023-04-26T16:09:23.276Z,99939.31
2023-04-26T16:14:25.508Z,99941.78
2023-04-26T16:19:27.648Z,99937.50
2023-04-26T16:24:29.423Z,99930.06
2023-04-26T16:29:31.266Z,99924.97
2023-04-26T16:34:33.018Z,99928.94
2023-04-26T16:39:36.081Z,99922.59
2023-04-26T16:44:37.834Z,99919.84
2023-04-26T16:49:39.549Z,99915.25
2023-04-26T16:54:41.856Z,99916.03
2023-04-26T16:59:43.590Z,99916.03
2023-04-26T17:04:45.830Z,99922.22
2023-04-26T17:09:47.704Z,99926.75
2023-04-26T17:14:49.489Z,99925.69
2023-04-26T17:19:51.297Z,99934.34
2023-04-26T17:24:53.034Z,99939.53
2023-04-26T17:29:54.780Z,99937.22
2023-04-26T17:39:56.276Z,99941.66
2023-04-26T17:44:58.622Z,99949.31
2023-04-26T17:50:00.583Z,99950.22
2023-04-26T17:55:02.576Z,99959.81
2023-04-26T18:00:06.865Z,99962.72
2023-04-26T18:05:09.939Z,99975.47
2023-04-26T18:10:11.712Z,99982.72
2023-04-26T18:15:14.043Z,99975.47
2023-04-26T18:20:16.552Z,99987.22
2023-04-26T18:25:18.424Z,99999.31
2023-04-26T18:30:20.382Z,99994.03
2023-04-26T18:35:22.106Z,100005.47
2023-04-26T18:40:24.565Z,100013.91
2023-04-26T18:45:26.327Z,100008.78
2023-04-26T18:50:28.076Z,100016.94
2023-04-26T18:55:29.857Z,100022.75
2023-04-26T19:00:32.725Z,100032.94
2023-04-26T19:05:34.547Z,100035.03
2023-04-26T19:10:36.576Z,100045.19
2023-04-26T19:15:38.400Z,100052.75
2023-04-26T19:20:40.296Z,100063.00
2023-04-26T19:25:42.112Z,100062.47
2023-04-26T19:30:43.870Z,100069.91
2023-04-26T19:35:45.698Z,100066.31
2023-04-26T19:40:47.500Z,100064.19
2023-04-26T19:45:49.311Z,100069.53
2023-04-26T19:50:51.104Z,100068.09
2023-04-26T19:55:52.833Z,100067.63
2023-04-26T20:00:55.310Z,100067.47
2023-04-26T20:05:57.101Z,100079.09
2023-04-26T20:11:03.915Z,100078.41
2023-04-26T20:16:06.665Z,100088.72
2023-04-26T20:21:09.454Z,100092.28
2023-04-26T20:26:11.512Z,100098.44
2023-04-26T20:31:13.255Z,100096.03
2023-04-26T20:36:15.430Z,100095.28
2023-04-26T20:41:17.163Z,100095.03
2023-04-26T20:46:19.118Z,100096.66
2023-04-26T20:51:20.937Z,100097.75
2023-04-26T20:56:22.689Z,100104.56
2023-04-26T21:01:24.495Z,100117.94
2023-04-26T21:06:27.253Z,100114.97
2023-04-26T21:11:29.120Z,100111.13
2023-04-26T21:16:31.113Z,100114.03
2023-04-26T21:21:32.875Z,100112.53
2023-04-26T21:26:34.645Z,100110.25
2023-04-26T21:31:36.464Z,100114.22
2023-04-26T21:36:38.346Z,100122.97
2023-04-26T21:41:40.420Z,100118.94
2023-04-26T21:46:42.236Z,100122.03
2023-04-26T21:51:44.201Z,100123.97
2023-04-26T21:56:45.960Z,100129.41
2023-04-26T22:01:47.733Z,100128.84
2023-04-26T22:06:49.513Z,100136.28
2023-04-26T22:11:51.285Z,100136.19
2023-04-26T22:16:53.037Z,100146.31
2023-04-26T22:21:56.253Z,100139.44
2023-04-26T22:26:58.263Z,100154.34
2023-04-26T22:32:00.063Z,100149.72
2023-04-26T22:37:17.151Z,100159.88
2023-04-26T22:42:22.373Z,100159.06
2023-04-26T22:47:24.278Z,100165.84
2023-04-26T22:52:31.647Z,100166.84
2023-04-26T22:57:34.063Z,100161.69
2023-04-26T23:02:35.834Z,100166.00
2023-04-26T23:07:39.172Z,100169.66
2023-04-26T23:12:41.344Z,100172.53
2023-04-26T23:17:44.151Z,100169.25
2023-04-26T23:22:46.062Z,100163.66
2023-04-26T23:27:47.782Z,100159.59
2023-04-26T23:32:49.623Z,100166.63
2023-04-26T23:37:52.593Z,100168.50
2023-04-26T23:42:54.446Z,100168.44
2023-04-26T23:47:56.202Z,100175.50
2023-04-26T23:52:58.059Z,100170.47
2023-04-26T23:57:59.816Z,100169.94
